Time;durP1;ratioP1;P1;durP2;ratioP2;P2;SDS_P1;SDS_P2;PMS_P1;PMS_P2;Temp;Humidity;BMP_temperature;BMP_pressure;BME280_temperature;BME280_humidity;BME280_pressure;Samples;Min_cycle;Max_cycle;Signal;HPM_P1;HPM_P2
2023/11/24 07:49:25;;;;;;;2.38;1.00;;;;;;;;;;10598573;27;20038;-89
2023/11/24 07:54:26;;;;;;;2.35;0.75;;;;;;;;;;10637836;27;20122;-89
2023/11/24 07:59:28;;;;;;;;;;;;;;;;;;10631310;27;20027;-88
2023/11/24 08:04:29;;;;;;;2.88;0.70;;;;;;;;;;10622361;27;19904;-86
2023/11/24 08:09:30;;;;;;;3.67;1.10;;;;;;;;;;10628900;27;20098;-84
2023/11/24 08:14:31;;;;;;;3.70;2.00;;;;;;;;;;10650473;27;20019;-83
2023/11/24 08:19:32;;;;;;;3.92;1.38;;;;;;;;;;10628775;27;20034;-82
2023/11/24 08:24:34;;;;;;;;;;;;;;;;;;10621589;27;20483;-82
2023/11/24 08:29:35;;;;;;;2.33;0.70;;;;;;;;;;10647638;27;19911;-82
2023/11/24 08:34:37;;;;;;;3.45;0.98;;;;;;;;;;10625095;27;20034;-83
2023/11/24 08:39:38;;;;;;;3.15;0.90;;;;;;;;;;10625282;27;20090;-82
2023/11/24 08:44:39;;;;;;;3.65;0.85;;;;;;;;;;10626648;27;20483;-81
2023/11/24 08:49:40;;;;;;;1.75;0.70;;;;;;;;;;10637767;27;20027;-79
2023/11/24 08:54:41;;;;;;;3.53;1.10;;;;;;;;;;10635617;27;20114;-81
2023/11/24 08:59:42;;;;;;;;;;;;;;;;;;10638825;27;20034;-80
2023/11/24 09:04:44;;;;;;;3.33;1.40;;;;;;;;;;10634813;27;19952;-79
2023/11/24 09:09:45;;;;;;;5.20;1.17;;;;;;;;;;10638136;27;20034;-79
2023/11/24 09:14:46;;;;;;;3.20;1.00;;;;;;;;;;10636612;27;20034;-80
2023/11/24 09:19:47;;;;;;;;;;;;;;;;;;10635769;27;20125;-79
2023/11/24 09:24:49;;;;;;;3.88;1.17;;;;;;;;;;10636917;27;19968;-81
2023/11/24 09:29:49;;;;;;;;;;;;;;;;;;10651138;27;20023;-79
2023/11/24 09:34:51;;;;;;;3.00;1.35;;;;;;;;;;10654344;27;19914;-79
2023/11/24 09:39:52;;;;;;;2.85;1.20;;;;;;;;;;10660151;27;20019;-79
2023/11/24 09:44:55;;;;;;;2.35;0.80;;;;;;;;;;10646620;27;20034;-79
2023/11/24 09:49:58;;;;;;;4.95;0.85;;;;;;;;;;10638437;27;20023;-79
2023/11/24 09:55:00;;;;;;;3.97;1.30;;;;;;;;;;10637454;27;20027;-79
2023/11/24 10:00:04;;;;;;;2.17;0.80;;;;;;;;;;10631407;27;20054;-79
2023/11/24 10:05:08;;;;;;;2.80;0.82;;;;;;;;;;10651946;27;20045;-79
2023/11/24 10:10:10;;;;;;;1.88;0.80;;;;;;;;;;10646662;27;20436;-81
2023/11/24 10:15:12;;;;;;;2.40;0.93;;;;;;;;;;10643212;27;20029;-80
2023/11/24 10:20:18;;;;;;;2.78;1.00;;;;;;;;;;10630974;27;20041;-80
2023/11/24 10:25:23;;;;;;;3.53;0.75;;;;;;;;;;10611737;27;20034;-80
2023/11/24 10:30:24;;;;;;;2.55;1.05;;;;;;;;;;10611388;27;20433;-80
2023/11/24 10:35:25;;;;;;;;;;;;;;;;;;10613165;27;20031;-80
2023/11/24 10:40:27;;;;;;;2.65;0.80;;;;;;;;;;10615206;28;19903;-82
2023/11/24 10:45:30;;;;;;;2.20;0.70;;;;;;;;;;10643691;28;20128;-80
2023/11/24 10:50:33;;;;;;;3.78;1.13;;;;;;;;;;10635954;28;20130;-81
2023/11/24 10:55:38;;;;;;;3.83;1.30;;;;;;;;;;10570095;28;20063;-80
2023/11/24 11:00:39;;;;;;;3.15;1.00;;;;;;;;;;10577710;28;20031;-79
2023/11/24 11:05:54;;;;;;;3.85;0.80;;;;;;;;;;10583662;28;20031;-80
2023/11/24 11:11:12;;;;;;;3.33;1.80;;;;;;;;;;10597098;28;20075;-79
2023/11/24 11:16:13;;;;;;;3.28;1.00;;;;;;;;;;10577133;28;20038;-80
2023/11/24 11:21:37;;;;;;;2.85;1.23;;;;;;;;;;10582128;28;20130;-80
2023/11/24 11:26:47;;;;;;;3.47;1.25;;;;;;;;;;10594195;28;20028;-80
2023/11/24 11:31:50;;;;;;;2.85;1.27;;;;;;;;;;10577558;28;20031;-80
2023/11/24 11:36:52;;;;;;;2.10;0.60;;;;;;;;;;10576383;28;20023;-82
2023/11/24 11:41:55;;;;;;;1.83;0.80;;;;;;;;;;10577443;28;20494;-80
2023/11/24 11:47:15;;;;;;;2.28;0.90;;;;;;;;;;10579197;28;20036;-80
2023/11/24 11:52:16;;;;;;;4.15;1.38;;;;;;;;;;10593327;28;20059;-81
2023/11/24 11:57:17;;;;;;;2.45;1.38;;;;;;;;;;10573875;28;20088;-80
2023/11/24 12:02:22;;;;;;;;;;;;;;;;;;10575507;28;20493;-81
2023/11/24 12:07:23;;;;;;;3.25;1.17;;;;;;;;;;10572632;28;19904;-81
2023/11/24 12:12:24;;;;;;;2.50;0.85;;;;;;;;;;10571066;28;20394;-79
2023/11/24 12:17:26;;;;;;;4.55;1.10;;;;;;;;;;10580786;28;20406;-80
2023/11/24 12:22:30;;;;;;;4.07;1.70;;;;;;;;;;10574529;28;20015;-80
2023/11/24 12:27:33;;;;;;;3.72;1.10;;;;;;;;;;10591619;28;20034;-80
2023/11/24 12:32:35;;;;;;;2.85;1.17;;;;;;;;;;10573855;28;20028;-80
2023/11/24 12:37:40;;;;;;;3.40;1.27;;;;;;;;;;10573195;28;20024;-80
2023/11/24 12:42:41;;;;;;;3.10;1.25;;;;;;;;;;10572995;28;20471;-80
2023/11/24 12:47:42;;;;;;;;;;;;;;;;;;10574288;28;20042;-80
2023/11/24 12:52:44;;;;;;;4.67;1.13;;;;;;;;;;10571108;28;19918;-80
2023/11/24 12:57:47;;;;;;;3.58;1.30;;;;;;;;;;10627991;22;20335;-80
2023/11/24 13:02:48;;;;;;;4.40;1.27;;;;;;;;;;10602181;28;20031;-78
2023/11/24 13:07:49;;;;;;;;;;;;;;;;;;10603175;28;20024;-79
2023/11/24 13:12:50;;;;;;;5.72;1.63;;;;;;;;;;10578842;28;19912;-80
2023/11/24 13:17:53;;;;;;;6.90;2.50;;;;;;;;;;10593765;28;20073;-80
2023/11/24 13:22:54;;;;;;;5.68;1.70;;;;;;;;;;10594821;28;20028;-80
2023/11/24 13:27:55;;;;;;;;;;;;;;;;;;10594115;28;20118;-79
2023/11/24 13:32:56;;;;;;;5.32;1.45;;;;;;;;;;10576257;28;20263;-80
2023/11/24 13:37:57;;;;;;;4.65;1.70;;;;;;;;;;10592684;28;20463;-79
2023/11/24 13:42:58;;;;;;;5.65;1.30;;;;;;;;;;10592542;28;20035;-79
2023/11/24 13:47:59;;;;;;;4.75;1.65;;;;;;;;;;10591812;28;20023;-79
2023/11/24 13:53:01;;;;;;;4.28;1.60;;;;;;;;;;10590636;28;20016;-79
2023/11/24 13:58:02;;;;;;;;;;;;;;;;;;10589705;28;20031;-78
2023/11/24 14:03:05;;;;;;;3.75;1.10;;;;;;;;;;10570275;28;19907;-78
2023/11/24 14:08:09;;;;;;;5.20;1.23;;;;;;;;;;10589783;28;20050;-79
2023/11/24 14:13:11;;;;;;;4.13;1.80;;;;;;;;;;10587759;28;20091;-79
2023/11/24 14:18:12;;;;;;;3.67;1.20;;;;;;;;;;10599747;28;20012;-77
2023/11/24 14:23:13;;;;;;;5.18;1.30;;;;;;;;;;10601447;28;20032;-78
2023/11/24 14:28:14;;;;;;;3.90;1.30;;;;;;;;;;10588959;28;20023;-78
2023/11/24 14:33:16;;;;;;;4.28;1.30;;;;;;;;;;10589106;28;20471;-78
2023/11/24 14:38:17;;;;;;;5.60;1.80;;;;;;;;;;10587542;28;20019;-78
2023/11/24 14:43:18;;;;;;;3.92;1.45;;;;;;;;;;10588615;28;20026;-78
2023/11/24 14:48:19;;;;;;;4.13;1.20;;;;;;;;;;10587845;28;20534;-78
2023/11/24 14:53:20;;;;;;;7.70;1.67;;;;;;;;;;10588509;28;20055;-79
2023/11/24 14:58:21;;;;;;;5.65;1.73;;;;;;;;;;10589530;28;20501;-79
2023/11/24 15:03:24;;;;;;;2.90;1.20;;;;;;;;;;10589999;28;20062;-79
2023/11/24 15:08:26;;;;;;;4.32;1.40;;;;;;;;;;10603569;28;20402;-77
2023/11/24 15:13:27;;;;;;;4.90;1.45;;;;;;;;;;10603504;28;20055;-78
2023/11/24 15:18:30;;;;;;;5.53;1.30;;;;;;;;;;10600821;28;20023;-80
2023/11/24 15:23:31;;;;;;;3.30;1.13;;;;;;;;;;10604682;28;20371;-78
2023/11/24 15:28:33;;;;;;;4.60;1.40;;;;;;;;;;10599659;28;20115;-77
2023/11/24 15:33:34;;;;;;;4.18;1.20;;;;;;;;;;10596638;28;20027;-77
2023/11/24 15:38:35;;;;;;;5.03;1.30;;;;;;;;;;10595474;28;20439;-78
2023/11/24 15:43:36;;;;;;;7.50;1.92;;;;;;;;;;10596080;28;20031;-77
2023/11/24 15:48:37;;;;;;;3.22;1.10;;;;;;;;;;10596790;28;20119;-78
2023/11/24 15:53:38;;;;;;;3.90;1.45;;;;;;;;;;10594254;28;20081;-78
2023/11/24 15:58:43;;;;;;;5.55;1.08;;;;;;;;;;10592244;28;20116;-78
2023/11/24 16:03:44;;;;;;;2.65;1.27;;;;;;;;;;10593643;28;20380;-77
2023/11/24 16:08:53;;;;;;;4.40;1.63;;;;;;;;;;10594064;28;20028;-78
2023/11/24 16:13:56;;;;;;;4.50;1.52;;;;;;;;;;10592221;28;20057;-78
2023/11/24 16:18:57;;;;;;;2.80;1.20;;;;;;;;;;10593886;28;20015;-78
2023/11/24 16:23:58;;;;;;;6.55;1.65;;;;;;;;;;10591353;28;20031;-78
2023/11/24 16:28:59;;;;;;;2.20;0.80;;;;;;;;;;10590908;28;20065;-78
2023/11/24 16:34:01;;;;;;;2.38;0.63;;;;;;;;;;10591171;28;20023;-78
2023/11/24 16:39:02;;;;;;;3.72;0.82;;;;;;;;;;10593208;28;20031;-77
2023/11/24 16:44:04;;;;;;;1.95;0.90;;;;;;;;;;10597431;28;20031;-77
2023/11/24 16:49:06;;;;;;;3.47;0.95;;;;;;;;;;10616159;28;20049;-77
2023/11/24 16:54:07;;;;;;;2.58;1.38;;;;;;;;;;10601515;28;20019;-78
2023/11/24 16:59:08;;;;;;;1.92;0.70;;;;;;;;;;10594753;28;20059;-78
2023/11/24 17:04:09;;;;;;;2.97;1.15;;;;;;;;;;10594660;28;20099;-78
2023/11/24 17:09:14;;;;;;;2.85;0.90;;;;;;;;;;10590765;28;20119;-78
2023/11/24 17:14:17;;;;;;;2.33;1.00;;;;;;;;;;10589211;28;20031;-78
2023/11/24 17:19:19;;;;;;;3.13;1.10;;;;;;;;;;10587983;28;20023;-78
2023/11/24 17:24:21;;;;;;;3.85;1.05;;;;;;;;;;10590645;28;20485;-79
2023/11/24 17:29:35;;;;;;;2.63;1.00;;;;;;;;;;10592818;28;20024;-84
2023/11/24 17:34:37;;;;;;;2.63;1.00;;;;;;;;;;10594226;28;20040;-83
2023/11/24 17:39:40;;;;;;;2.63;1.48;;;;;;;;;;10596467;28;20095;-82
2023/11/24 17:44:41;;;;;;;3.05;1.25;;;;;;;;;;10595861;28;20475;-83
2023/11/24 17:49:42;;;;;;;2.50;1.02;;;;;;;;;;10594032;28;20024;-83
2023/11/24 17:54:44;;;;;;;2.72;1.10;;;;;;;;;;10596866;28;20027;-83
2023/11/24 17:59:45;;;;;;;4.72;1.40;;;;;;;;;;10594121;28;20027;-83
2023/11/24 18:04:46;;;;;;;4.78;1.48;;;;;;;;;;10593452;28;20085;-84
2023/11/24 18:09:47;;;;;;;5.18;1.15;;;;;;;;;;10595373;28;20123;-83
2023/11/24 18:14:48;;;;;;;3.00;1.00;;;;;;;;;;10587466;28;20103;-82
2023/11/24 18:19:49;;;;;;;2.53;0.95;;;;;;;;;;10589618;28;20431;-82
2023/11/24 18:24:50;;;;;;;;;;;;;;;;;;10587318;28;20020;-82
2023/11/24 18:29:54;;;;;;;1.90;0.90;;;;;;;;;;10567508;28;19904;-83
2023/11/24 18:34:55;;;;;;;2.50;0.90;;;;;;;;;;10586573;28;20282;-82
2023/11/24 18:39:56;;;;;;;;;;;;;;;;;;10584354;28;20031;-83
2023/11/24 18:45:01;;;;;;;2.90;1.00;;;;;;;;;;10569676;28;19910;-82
2023/11/24 18:50:17;;;;;;;2.95;1.17;;;;;;;;;;10592858;28;20028;-83
2023/11/24 18:55:26;;;;;;;4.22;1.20;;;;;;;;;;10587181;28;20123;-83
2023/11/24 19:00:27;;;;;;;2.97;0.82;;;;;;;;;;10591781;28;20050;-84
2023/11/24 19:05:41;;;;;;;3.20;1.10;;;;;;;;;;10588410;28;20119;-84
2023/11/24 19:10:47;;;;;;;5.45;1.23;;;;;;;;;;10584695;28;20110;-84
2023/11/24 19:15:52;;;;;;;4.82;1.15;;;;;;;;;;10585256;28;20031;-84
2023/11/24 19:20:54;;;;;;;3.58;1.00;;;;;;;;;;10585164;28;20023;-83
2023/11/24 19:25:55;;;;;;;3.03;0.85;;;;;;;;;;10583321;28;20020;-83
2023/11/24 19:30:56;;;;;;;4.13;0.85;;;;;;;;;;10584416;28;20086;-83
2023/11/24 19:35:58;;;;;;;1.88;0.80;;;;;;;;;;10584770;28;20068;-84
2023/11/24 19:40:59;;;;;;;2.22;0.70;;;;;;;;;;10588427;28;20027;-84
2023/11/24 19:46:00;;;;;;;2.35;0.80;;;;;;;;;;10586921;28;20027;-84
2023/11/24 19:51:02;;;;;;;2.25;0.70;;;;;;;;;;10596545;28;20055;-84
2023/11/24 19:56:03;;;;;;;1.42;0.60;;;;;;;;;;10597350;28;20024;-85
2023/11/24 20:01:05;;;;;;;2.60;0.70;;;;;;;;;;10597006;28;20070;-84
2023/11/24 20:06:06;;;;;;;1.77;0.77;;;;;;;;;;10597012;28;20445;-85
